Flight Track Log - Related Links

Times and Time Zones

All times are in EDT time to prevent confusion due to time zone crossing. See the SWA2058 flight status page for this flight to view local times or setup timezone preferences in your user account.

Time Position Orientation Groundspeed Altitude Reporting Facility
EDT Latitude Longitude Course Direction KTS MPH feet Rate Location/Type
Sat 09:10:15 PM 36.0750 -115.1633 257° West 191 220 3,300  Level Los Angeles Center
Sat 09:11:34 PM 36.0569 -115.2594 257° West 269 310 6,100 1,897 Climbing Los Angeles Center
Sat 09:12:12 PM 36.0244 -115.2756 202° Southwest 277 319 7,000 1,082 Climbing Los Angeles Center
Sat 09:12:35 PM 35.9847 -115.2939 200° South 287 330 7,200 2,323 Climbing Los Angeles Center
Sat 09:13:14 PM 35.9333 -115.2775 166° South 295 339 9,400 3,000 Climbing Los Angeles Center
Sat 09:14:15 PM 35.9219 -115.1714 98° East 320 368 12,200 2,829 Climbing Los Angeles Center
Sat 09:15:17 PM 35.9236 -115.0503 89° East 348 400 15,200 2,878 Climbing Los Angeles Center
Sat 09:16:18 PM 35.9231 -114.9214 90° East 367 422 18,100 2,683 Climbing Los Angeles Center
Sat 09:17:20 PM 35.9228 -114.7811 90° East 401 461 20,700 2,439 Climbing Los Angeles Center
Sat 09:18:21 PM 35.9236 -114.6372 90° East 416 479 23,100 2,293 Climbing Los Angeles Center
Sat 09:19:23 PM 35.9239 -114.4861 90° East 437 503 25,400 2,244 Climbing Los Angeles Center
Sat 09:20:24 PM 35.9236 -114.2986 90° East 455 524 27,700 1,902 Climbing Los Angeles Center
Sat 09:21:26 PM 35.9228 -114.1347 90° East 474 545 29,300 1,512 Climbing Los Angeles Center
Sat 09:22:27 PM 35.8697 -113.9783 113° Southeast 496 571 30,800 1,366 Climbing Los Angeles Center
Sat 09:23:29 PM 35.7981 -113.8253 120° Southeast 510 587 32,100 1,561 Climbing Los Angeles Center
Sat 09:24:30 PM 35.7239 -113.6703 120° Southeast 521 600 34,000 1,610 Climbing Los Angeles Center
Sat 09:25:32 PM 35.6483 -113.5092 120° Southeast 515 593 35,400 1,463 Climbing Los Angeles Center
Sat 09:26:33 PM 35.5772 -113.3583 120° Southeast 512 589 37,000 1,268 Climbing Los Angeles Center
Sat 09:27:35 PM 35.5086 -113.2164 121° Southeast 509 586 38,000 829 Climbing Los Angeles Center
Sat 09:28:36 PM 35.4369 -113.0658 120° Southeast 509 586 38,700 492 Climbing Los Angeles Center
Sat 09:29:37 PM 35.3633 -112.9081 120° Southeast 522 601 39,000 173 Climbing Los Angeles Center
Sat 09:30:20 PM 35.3286 -112.7667 107° East 514 592 39,000  Level Albuquerque Center
Sat 09:31:21 PM 35.2847 -112.5881 107° East 516 594 39,000  Level Albuquerque Center
Sat 09:32:22 PM 35.2422 -112.4225 107° East 514 592 39,000  Level Albuquerque Center
Sat 09:33:23 PM 35.1992 -112.2561 108° East 515 593 39,000  Level Albuquerque Center
Sat 09:34:24 PM 35.1569 -112.0900 107° East 515 593 39,000  Level Albuquerque Center
Sat 09:35:25 PM 35.1125 -111.9242 108° East 516 594 39,000  Level Albuquerque Center
Sat 09:36:26 PM 35.0686 -111.7575 108° East 518 596 39,000  Level Albuquerque Center
Sat 09:37:27 PM 35.0261 -111.5936 108° East 519 597 39,000  Level Albuquerque Center
Sat 09:38:28 PM 34.9811 -111.4256 108° East 520 598 39,000  Level Albuquerque Center
Sat 09:39:29 PM 34.9372 -111.2581 108° East 520 598 39,000  Level Albuquerque Center
Sat 09:40:30 PM 34.8925 -111.0906 108° East 520 598 39,000  Level Albuquerque Center
Sat 09:41:31 PM 34.8478 -110.9214 108° East 522 601 39,000  Level Albuquerque Center
Sat 09:42:32 PM 34.7961 -110.7325 108° East 521 600 39,000  Level Albuquerque Center
Sat 09:43:33 PM 34.7531 -110.5717 108° East 522 601 39,000  Level Albuquerque Center
Sat 09:44:34 PM 34.7011 -110.3858 109° East 522 601 39,000  Level Albuquerque Center
Sat 09:45:34 PM 34.6547 -110.2250 109° East 524 603 39,000  Level Albuquerque Center
Sat 09:46:35 PM 34.6014 -110.0361 109° East 529 609 39,000  Level Albuquerque Center
Sat 09:47:36 PM 34.5542 -109.8711 109° East 538 619 39,000  Level Albuquerque Center
Sat 09:48:37 PM 34.5108 -109.7114 108° East 530 610 39,000  Level Albuquerque Center
Sat 09:49:38 PM 34.4572 -109.5236 109° East 529 609 39,000  Level Albuquerque Center
Sat 09:50:39 PM 34.4125 -109.3625 109° East 529 609 39,000  Level Albuquerque Center
Sat 09:51:40 PM 34.3656 -109.2011 109° East 531 611 39,000  Level Albuquerque Center
Sat 09:52:41 PM 34.3114 -109.0153 109° East 528 608 39,000  Level Albuquerque Center
Sat 09:53:41 PM 34.2664 -108.8639 110° East 526 605 39,000  Level Albuquerque Center
Sat 09:54:42 PM 34.2167 -108.6950 110° East 532 612 39,000  Level Albuquerque Center
Sat 09:55:43 PM 34.1678 -108.5272 109° East 533 613 39,000  Level Albuquerque Center
Sat 09:56:44 PM 34.1181 -108.3611 110° East 532 612 39,000  Level Albuquerque Center
Sat 09:57:45 PM 34.0675 -108.1922 110° East 536 617 39,000  Level Albuquerque Center
Sat 09:58:46 PM 34.0119 -108.0114 110° East 537 618 39,000  Level Albuquerque Center
Sat 09:59:47 PM 33.9611 -107.8414 110° East 538 619 39,000  Level Albuquerque Center
Sat 10:00:47 PM 33.9097 -107.6719 110° East 539 620 39,000  Level Albuquerque Center
Sat 10:01:48 PM 33.8589 -107.5014 110° East 541 623 39,000  Level Albuquerque Center
Sat 10:02:49 PM 33.8072 -107.3339 110° East 537 618 39,000  Level Albuquerque Center
Sat 10:03:50 PM 33.7547 -107.1667 111° Southeast 535 616 39,000  Level Albuquerque Center
Sat 10:04:51 PM 33.7028 -106.9981 110° East 536 617 39,000  Level Albuquerque Center
Sat 10:05:52 PM 33.6394 -106.7961 111° Southeast 537 618 39,000  Level Albuquerque Center
Sat 10:06:53 PM 33.5869 -106.6275 110° East 539 620 39,000  Level Albuquerque Center
Sat 10:07:54 PM 33.5336 -106.4600 111° Southeast 537 618 39,000  Level Albuquerque Center
Sat 10:08:54 PM 33.4803 -106.2911 111° Southeast 539 620 39,000  Level Albuquerque Center
Sat 10:09:55 PM 33.4264 -106.1222 111° Southeast 541 623 39,000  Level Albuquerque Center
Sat 10:10:56 PM 33.3725 -105.9533 111° Southeast 542 624 39,000  Level Albuquerque Center
Sat 10:11:57 PM 33.3175 -105.7831 111° Southeast 546 628 39,000  Level Albuquerque Center
Sat 10:12:58 PM 33.2625 -105.6147 111° Southeast 545 627 39,000  Level Albuquerque Center
Sat 10:13:59 PM 33.2036 -105.4347 111° Southeast 544 626 39,000  Level Albuquerque Center
Sat 10:15:00 PM 33.1486 -105.2681 111° Southeast 542 624 39,000  Level Albuquerque Center
Sat 10:16:01 PM 33.0900 -105.0900 111° Southeast 540 621 39,000  Level Albuquerque Center
Sat 10:17:01 PM 33.0361 -104.9247 111° Southeast 538 619 39,000  Level Albuquerque Center
Sat 10:18:02 PM 32.9806 -104.7608 112° Southeast 538 619 39,000  Level Albuquerque Center
Sat 10:19:03 PM 32.9261 -104.5958 111° Southeast 539 620 39,000  Level Albuquerque Center
Sat 10:20:04 PM 32.8681 -104.4194 111° Southeast 536 617 39,000  Level Albuquerque Center
Sat 10:21:05 PM 32.8119 -104.2550 112° Southeast 540 621 39,000  Level Albuquerque Center
Sat 10:22:06 PM 32.7578 -104.0906 111° Southeast 539 620 39,000  Level Albuquerque Center
Sat 10:23:06 PM 32.7014 -103.9278 112° Southeast 536 617 39,000  Level Albuquerque Center
Sat 10:24:07 PM 32.6453 -103.7661 112° Southeast 539 620 39,000  Level Albuquerque Center
Sat 10:25:08 PM 32.5919 -103.6017 111° Southeast 536 617 39,000  Level Albuquerque Center
Sat 10:26:09 PM 32.5325 -103.4364 113° Southeast 544 626 39,000  Level Albuquerque Center
Sat 10:27:03 PM 32.4750 -103.2786 113° Southeast 529 609 39,000  Level Fort Worth Center
Sat 10:28:03 PM 32.4178 -103.1125 112° Southeast 529 609 39,000  Level Fort Worth Center
Sat 10:29:03 PM 32.3583 -102.9489 113° Southeast 529 609 39,000  Level Fort Worth Center
Sat 10:30:03 PM 32.2986 -102.7856 113° Southeast 529 609 39,000  Level Fort Worth Center
Sat 10:31:03 PM 32.2411 -102.6178 112° Southeast 534 615 39,000  Level Fort Worth Center
Sat 10:32:03 PM 32.1789 -102.4522 114° Southeast 534 615 39,000  Level Fort Worth Center
Sat 10:33:03 PM 32.1306 -102.3047 111° Southeast 539 620 39,000  Level Fort Worth Center
Sat 10:34:03 PM 32.0722 -102.1350 112° Southeast 539 620 39,000  Level Fort Worth Center
Sat 10:35:03 PM 32.0097 -101.9675 114° Southeast 547 629 39,000  Level Fort Worth Center
Sat 10:36:03 PM 31.9508 -101.8031 113° Southeast 547 629 39,000  Level Fort Worth Center
Sat 10:37:03 PM 31.8917 -101.6389 113° Southeast 547 629 39,000  Level Fort Worth Center
Sat 10:38:03 PM 31.8303 -101.4747 114° Southeast 547 629 39,000  Level Fort Worth Center
Sat 10:39:03 PM 31.7708 -101.3131 113° Southeast 542 624 39,000  Level Fort Worth Center
Sat 10:40:03 PM 31.7089 -101.1519 114° Southeast 542 624 39,000  Level Fort Worth Center
Sat 10:41:03 PM 31.6489 -100.9908 114° Southeast 537 618 39,000  Level Fort Worth Center
Sat 10:42:03 PM 31.5886 -100.8325 114° Southeast 537 618 39,000  Level Fort Worth Center
Sat 10:43:57 PM 31.4750 -100.5322 114° Southeast 530 610 39,000  Level Houston Center
Sat 10:44:57 PM 31.4158 -100.3775 114° Southeast 524 603 39,000  Level Houston Center
Sat 10:45:58 PM 31.3561 -100.2225 114° Southeast 521 600 39,000  Level Houston Center
Sat 10:46:58 PM 31.2969 -100.0686 114° Southeast 519 597 39,000  Level Houston Center
Sat 10:47:59 PM 31.2392 -99.9164 114° Southeast 514 592 39,000  Level Houston Center
Sat 10:48:59 PM 31.1800 -99.7642 114° Southeast 514 592 39,000 -893 Level Houston Center
Sat 10:50:00 PM 31.1125 -99.6197 119° Southeast 507 583 37,200 -2,410 Descending Houston Center
Sat 10:51:01 PM 31.0433 -99.4678 118° Southeast 523 602 34,100 -3,273 Descending Houston Center
Sat 10:52:01 PM 30.9694 -99.3089 118° Southeast 547 629 30,600 -3,223 Descending Houston Center
Sat 10:53:02 PM 30.8922 -99.1442 119° Southeast 543 625 27,600 -1,884 Descending Houston Center
Sat 10:54:02 PM 30.8222 -98.9936 118° Southeast 530 610 26,800 -1,884 Descending Houston Center
Sat 10:55:03 PM 30.7531 -98.8444 118° Southeast 520 598 23,800 -2,852 Descending Houston Center
Sat 10:56:04 PM 30.6869 -98.7033 119° Southeast 499 574 21,000 -2,628 Descending Houston Center
Sat 10:57:04 PM 30.6250 -98.5731 119° Southeast 462 532 18,500 -2,826 Descending Houston Center
Sat 10:58:05 PM 30.5678 -98.4519 119° Southeast 430 495 15,300 -3,025 Descending Houston Center
Sat 10:59:05 PM 30.5136 -98.3319 118° Southeast 420 483 12,400 -2,281 Descending Houston Center
Sat 11:00:06 PM 30.4858 -98.2169 106° East 368 423 10,700 -1,438 Descending Houston Center
Sat 11:01:06 PM 30.4603 -98.1119 106° East 339 390 9,500 -1,388 Descending Houston Center
Sat 11:02:07 PM 30.4361 -98.0169 106° East 313 360 7,900 -1,488 Descending Houston Center
Sat 11:03:07 PM 30.4133 -97.9214 105° East 308 354 6,500 -992 Descending Houston Center
Sat 11:04:08 PM 30.3917 -97.8353 106° East 287 330 5,900 -545 Descending Houston Center
Sat 11:05:08 PM 30.3733 -97.7633 106° East 247 284 5,400 -744 Descending Houston Center
Sat 11:06:09 PM 30.3600 -97.7089 106° East 194 223 4,400 -1,240 Descending Houston Center
Sat 11:07:09 PM 30.3350 -97.6811 136° Southeast 147 169 2,900 -1,091 Descending Houston Center
Sat 11:08:10 PM 30.3011 -97.6817 181° South 125 144 2,200 -645 Descending Houston Center
Sat 11:09:10 PM 30.2703 -97.6814 180° South 114 131 1,600 -545 Descending Houston Center
Sat 11:10:11 PM 30.2425 -97.6803 178° South 114 131 1,100 -492 Descending Houston Center
Sat 11:12:00 PM 30.1945 -97.6699 221° Southwest  Level Estimated
Sat 11:19:00 PM 30.1945 -97.6699 221° Southwest  Level Estimated

Login

Don't have an account? Register now (free) for customized features, flight alerts, and more!